sensor_id;sensor_type;location;lat;lon;timestamp;temperature;humidity
28071;DHT22;15383;48.408;9.968;2022-12-07T00:03:32;13.40;92.30
28071;DHT22;15383;48.408;9.968;2022-12-07T00:05:58;13.40;92.30
28071;DHT22;15383;48.408;9.968;2022-12-07T00:08:24;13.30;92.30
28071;DHT22;15383;48.408;9.968;2022-12-07T00:10:49;13.40;92.40
28071;DHT22;15383;48.408;9.968;2022-12-07T00:13:15;13.40;92.40
28071;DHT22;15383;48.408;9.968;2022-12-07T00:15:41;13.40;92.40
28071;DHT22;15383;48.408;9.968;2022-12-07T00:18:06;13.30;92.40
28071;DHT22;15383;48.408;9.968;2022-12-07T00:20:32;13.40;92.50
28071;DHT22;15383;48.408;9.968;2022-12-07T00:22:58;13.40;92.50
28071;DHT22;15383;48.408;9.968;2022-12-07T00:25:24;13.40;92.50
28071;DHT22;15383;48.408;9.968;2022-12-07T00:27:49;13.30;92.60
28071;DHT22;15383;48.408;9.968;2022-12-07T00:30:15;13.40;92.60
28071;DHT22;15383;48.408;9.968;2022-12-07T00:32:41;13.30;92.60
28071;DHT22;15383;48.408;9.968;2022-12-07T00:35:07;13.30;92.60
28071;DHT22;15383;48.408;9.968;2022-12-07T00:37:32;13.30;92.60
28071;DHT22;15383;48.408;9.968;2022-12-07T00:39:58;13.30;92.70
28071;DHT22;15383;48.408;9.968;2022-12-07T00:42:23;13.40;93.00
28071;DHT22;15383;48.408;9.968;2022-12-07T00:44:49;13.30;92.70
28071;DHT22;15383;48.408;9.968;2022-12-07T00:47:14;13.30;92.70
28071;DHT22;15383;48.408;9.968;2022-12-07T00:49:40;13.30;92.70
28071;DHT22;15383;48.408;9.968;2022-12-07T00:52:05;13.30;92.70
28071;DHT22;15383;48.408;9.968;2022-12-07T00:54:31;13.30;92.70
28071;DHT22;15383;48.408;9.968;2022-12-07T00:56:56;13.30;92.80
28071;DHT22;15383;48.408;9.968;2022-12-07T00:59:22;13.30;92.70
28071;DHT22;15383;48.408;9.968;2022-12-07T01:01:47;13.30;92.80
28071;DHT22;15383;48.408;9.968;2022-12-07T01:04:13;13.30;92.80
28071;DHT22;15383;48.408;9.968;2022-12-07T01:06:39;13.30;93.00
28071;DHT22;15383;48.408;9.968;2022-12-07T01:09:04;13.30;93.10
28071;DHT22;15383;48.408;9.968;2022-12-07T01:11:31;13.30;93.00
28071;DHT22;15383;48.408;9.968;2022-12-07T01:13:58;13.30;93.00
28071;DHT22;15383;48.408;9.968;2022-12-07T01:16:25;13.30;93.00
28071;DHT22;15383;48.408;9.968;2022-12-07T01:18:53;13.30;93.00
28071;DHT22;15383;48.408;9.968;2022-12-07T01:21:24;13.30;93.10
28071;DHT22;15383;48.408;9.968;2022-12-07T01:23:50;13.30;93.10
28071;DHT22;15383;48.408;9.968;2022-12-07T01:26:18;13.30;93.10
28071;DHT22;15383;48.408;9.968;2022-12-07T01:28:44;13.30;93.10
28071;DHT22;15383;48.408;9.968;2022-12-07T01:31:13;13.30;93.20
28071;DHT22;15383;48.408;9.968;2022-12-07T01:33:41;13.30;93.20
28071;DHT22;15383;48.408;9.968;2022-12-07T01:36:16;13.30;93.20
28071;DHT22;15383;48.408;9.968;2022-12-07T01:38:42;13.30;93.20
28071;DHT22;15383;48.408;9.968;2022-12-07T01:41:08;13.30;93.20
28071;DHT22;15383;48.408;9.968;2022-12-07T01:43:34;13.30;93.20
28071;DHT22;15383;48.408;9.968;2022-12-07T01:46:02;13.30;93.20
28071;DHT22;15383;48.408;9.968;2022-12-07T01:48:36;13.30;93.20
28071;DHT22;15383;48.408;9.968;2022-12-07T01:51:06;13.20;93.20
28071;DHT22;15383;48.408;9.968;2022-12-07T01:53:34;13.20;93.20
28071;DHT22;15383;48.408;9.968;2022-12-07T01:56:01;13.30;93.20
28071;DHT22;15383;48.408;9.968;2022-12-07T01:58:27;13.30;93.30
28071;DHT22;15383;48.408;9.968;2022-12-07T02:00:53;13.30;93.40
28071;DHT22;15383;48.408;9.968;2022-12-07T02:05:47;13.30;93.40
28071;DHT22;15383;48.408;9.968;2022-12-07T02:08:13;13.30;93.50
28071;DHT22;15383;48.408;9.968;2022-12-07T02:10:39;13.30;93.50
28071;DHT22;15383;48.408;9.968;2022-12-07T02:13:19;13.30;93.50
28071;DHT22;15383;48.408;9.968;2022-12-07T02:22:34;13.30;93.50
28071;DHT22;15383;48.408;9.968;2022-12-07T02:30:42;13.20;93.50
28071;DHT22;15383;48.408;9.968;2022-12-07T02:33:29;13.20;93.50
28071;DHT22;15383;48.408;9.968;2022-12-07T02:36:15;13.20;93.60
28071;DHT22;15383;48.408;9.968;2022-12-07T02:38:58;13.20;93.60
28071;DHT22;15383;48.408;9.968;2022-12-07T02:41:36;13.20;93.60
28071;DHT22;15383;48.408;9.968;2022-12-07T02:44:10;13.20;93.60
28071;DHT22;15383;48.408;9.968;2022-12-07T02:46:43;13.30;93.60
28071;DHT22;15383;48.408;9.968;2022-12-07T02:49:10;13.20;93.60
28071;DHT22;15383;48.408;9.968;2022-12-07T02:51:41;13.20;93.60
28071;DHT22;15383;48.408;9.968;2022-12-07T02:54:15;13.20;93.60
28071;DHT22;15383;48.408;9.968;2022-12-07T03:07:57;13.30;93.70
28071;DHT22;15383;48.408;9.968;2022-12-07T03:13:12;13.20;93.70
28071;DHT22;15383;48.408;9.968;2022-12-07T03:16:01;13.20;93.80
28071;DHT22;15383;48.408;9.968;2022-12-07T03:18:30;13.20;93.70
28071;DHT22;15383;48.408;9.968;2022-12-07T03:21:02;13.20;93.80
28071;DHT22;15383;48.408;9.968;2022-12-07T03:23:29;13.20;93.80
28071;DHT22;15383;48.408;9.968;2022-12-07T03:25:59;13.20;93.80
28071;DHT22;15383;48.408;9.968;2022-12-07T03:28:28;13.20;93.80
28071;DHT22;15383;48.408;9.968;2022-12-07T03:33:44;13.20;93.80
28071;DHT22;15383;48.408;9.968;2022-12-07T03:36:35;13.20;93.80
28071;DHT22;15383;48.408;9.968;2022-12-07T03:41:31;13.20;93.90
28071;DHT22;15383;48.408;9.968;2022-12-07T03:43:58;13.20;94.20
28071;DHT22;15383;48.408;9.968;2022-12-07T03:46:30;13.20;93.90
28071;DHT22;15383;48.408;9.968;2022-12-07T03:56:58;13.20;93.90
28071;DHT22;15383;48.408;9.968;2022-12-07T03:59:25;13.20;93.90
28071;DHT22;15383;48.408;9.968;2022-12-07T04:01:56;13.20;93.90
28071;DHT22;15383;48.408;9.968;2022-12-07T04:04:24;13.20;93.90
28071;DHT22;15383;48.408;9.968;2022-12-07T04:06:50;13.20;93.90
28071;DHT22;15383;48.408;9.968;2022-12-07T04:09:16;13.20;93.90
28071;DHT22;15383;48.408;9.968;2022-12-07T04:11:42;13.20;93.90
28071;DHT22;15383;48.408;9.968;2022-12-07T04:14:08;13.20;93.90
28071;DHT22;15383;48.408;9.968;2022-12-07T04:16:51;13.20;93.90
28071;DHT22;15383;48.408;9.968;2022-12-07T04:19:19;13.20;94.10
28071;DHT22;15383;48.408;9.968;2022-12-07T04:21:45;13.20;94.20
28071;DHT22;15383;48.408;9.968;2022-12-07T04:24:12;13.20;94.20
28071;DHT22;15383;48.408;9.968;2022-12-07T04:26:38;13.20;94.30
28071;DHT22;15383;48.408;9.968;2022-12-07T04:29:03;13.20;94.40
28071;DHT22;15383;48.408;9.968;2022-12-07T04:31:29;13.20;94.40
28071;DHT22;15383;48.408;9.968;2022-12-07T04:33:55;13.20;94.40
28071;DHT22;15383;48.408;9.968;2022-12-07T04:36:20;13.30;94.40
28071;DHT22;15383;48.408;9.968;2022-12-07T04:38:46;13.20;94.50
28071;DHT22;15383;48.408;9.968;2022-12-07T04:41:12;13.30;94.60
28071;DHT22;15383;48.408;9.968;2022-12-07T04:43:37;13.30;94.50
28071;DHT22;15383;48.408;9.968;2022-12-07T04:46:03;13.30;94.40
28071;DHT22;15383;48.408;9.968;2022-12-07T04:48:29;13.30;94.30
28071;DHT22;15383;48.408;9.968;2022-12-07T04:50:55;13.30;94.30
28071;DHT22;15383;48.408;9.968;2022-12-07T04:53:20;13.30;94.60
28071;DHT22;15383;48.408;9.968;2022-12-07T04:55:46;13.30;94.30
28071;DHT22;15383;48.408;9.968;2022-12-07T04:58:12;13.20;94.30
28071;DHT22;15383;48.408;9.968;2022-12-07T05:00:39;13.30;94.30
28071;DHT22;15383;48.408;9.968;2022-12-07T05:03:05;13.30;94.30
28071;DHT22;15383;48.408;9.968;2022-12-07T05:05:30;13.30;94.30
28071;DHT22;15383;48.408;9.968;2022-12-07T05:07:56;13.30;94.30
28071;DHT22;15383;48.408;9.968;2022-12-07T05:10:22;13.40;94.40
28071;DHT22;15383;48.408;9.968;2022-12-07T05:12:47;13.30;94.30
28071;DHT22;15383;48.408;9.968;2022-12-07T05:15:14;13.30;94.20
28071;DHT22;15383;48.408;9.968;2022-12-07T05:17:40;13.30;94.20
28071;DHT22;15383;48.408;9.968;2022-12-07T05:20:06;13.30;94.20
28071;DHT22;15383;48.408;9.968;2022-12-07T05:22:32;13.20;94.20
28071;DHT22;15383;48.408;9.968;2022-12-07T05:24:57;13.30;94.20
28071;DHT22;15383;48.408;9.968;2022-12-07T05:27:23;13.20;94.10
28071;DHT22;15383;48.408;9.968;2022-12-07T05:29:50;13.20;94.10
28071;DHT22;15383;48.408;9.968;2022-12-07T05:32:16;13.30;94.20
28071;DHT22;15383;48.408;9.968;2022-12-07T05:34:42;13.20;94.10
28071;DHT22;15383;48.408;9.968;2022-12-07T05:37:07;13.20;94.10
28071;DHT22;15383;48.408;9.968;2022-12-07T05:39:33;13.20;94.50
28071;DHT22;15383;48.408;9.968;2022-12-07T05:41:58;13.20;94.20
28071;DHT22;15383;48.408;9.968;2022-12-07T05:44:44;13.20;94.30
28071;DHT22;15383;48.408;9.968;2022-12-07T05:47:11;13.20;94.30
28071;DHT22;15383;48.408;9.968;2022-12-07T05:49:37;13.20;94.30
28071;DHT22;15383;48.408;9.968;2022-12-07T05:52:03;13.20;94.30
28071;DHT22;15383;48.408;9.968;2022-12-07T05:54:28;13.20;94.30
28071;DHT22;15383;48.408;9.968;2022-12-07T05:56:54;13.10;94.20
28071;DHT22;15383;48.408;9.968;2022-12-07T05:59:20;13.10;94.30
28071;DHT22;15383;48.408;9.968;2022-12-07T06:02:03;13.20;94.30
28071;DHT22;15383;48.408;9.968;2022-12-07T06:04:31;13.10;94.20
28071;DHT22;15383;48.408;9.968;2022-12-07T06:06:58;13.20;94.30
28071;DHT22;15383;48.408;9.968;2022-12-07T06:09:25;13.10;94.20
28071;DHT22;15383;48.408;9.968;2022-12-07T06:11:51;13.10;94.20
28071;DHT22;15383;48.408;9.968;2022-12-07T06:14:36;13.10;94.20
28071;DHT22;15383;48.408;9.968;2022-12-07T06:17:01;13.10;94.20
28071;DHT22;15383;48.408;9.968;2022-12-07T06:19:27;13.10;94.20
28071;DHT22;15383;48.408;9.968;2022-12-07T06:21:53;13.10;94.20
28071;DHT22;15383;48.408;9.968;2022-12-07T06:24:19;13.10;94.20
28071;DHT22;15383;48.408;9.968;2022-12-07T06:26:45;13.00;94.20
28071;DHT22;15383;48.408;9.968;2022-12-07T06:29:11;13.10;94.20
28071;DHT22;15383;48.408;9.968;2022-12-07T06:31:37;13.10;94.20
28071;DHT22;15383;48.408;9.968;2022-12-07T06:34:09;13.10;94.30
28071;DHT22;15383;48.408;9.968;2022-12-07T06:36:36;13.10;94.20
28071;DHT22;15383;48.408;9.968;2022-12-07T06:39:02;13.00;94.20
28071;DHT22;15383;48.408;9.968;2022-12-07T06:41:27;13.10;94.20
28071;DHT22;15383;48.408;9.968;2022-12-07T06:43:53;13.00;94.10
28071;DHT22;15383;48.408;9.968;2022-12-07T06:46:18;13.10;94.10
28071;DHT22;15383;48.408;9.968;2022-12-07T06:48:44;13.10;94.10
28071;DHT22;15383;48.408;9.968;2022-12-07T06:51:10;13.10;94.10
28071;DHT22;15383;48.408;9.968;2022-12-07T06:53:36;13.00;94.10
28071;DHT22;15383;48.408;9.968;2022-12-07T06:56:03;13.10;94.10
28071;DHT22;15383;48.408;9.968;2022-12-07T06:58:29;13.00;94.10
28071;DHT22;15383;48.408;9.968;2022-12-07T07:00:54;13.10;94.10
28071;DHT22;15383;48.408;9.968;2022-12-07T07:03:20;13.10;94.10
28071;DHT22;15383;48.408;9.968;2022-12-07T07:05:45;13.10;94.10
28071;DHT22;15383;48.408;9.968;2022-12-07T07:08:11;13.10;94.10
28071;DHT22;15383;48.408;9.968;2022-12-07T07:10:37;13.10;94.10
28071;DHT22;15383;48.408;9.968;2022-12-07T07:13:03;13.10;94.10
28071;DHT22;15383;48.408;9.968;2022-12-07T07:15:29;13.00;94.10
28071;DHT22;15383;48.408;9.968;2022-12-07T07:17:54;13.10;94.10
28071;DHT22;15383;48.408;9.968;2022-12-07T07:20:20;13.00;94.10
28071;DHT22;15383;48.408;9.968;2022-12-07T07:22:45;13.10;94.10
28071;DHT22;15383;48.408;9.968;2022-12-07T07:25:11;13.00;94.00
28071;DHT22;15383;48.408;9.968;2022-12-07T07:27:37;13.10;94.10
28071;DHT22;15383;48.408;9.968;2022-12-07T07:30:03;12.70;89.10
28071;DHT22;15383;48.408;9.968;2022-12-07T07:32:43;12.60;83.40
28071;DHT22;15383;48.408;9.968;2022-12-07T07:35:29;12.60;76.90
28071;DHT22;15383;48.408;9.968;2022-12-07T07:37:56;12.20;77.40
28071;DHT22;15383;48.408;9.968;2022-12-07T07:40:22;12.40;79.40
28071;DHT22;15383;48.408;9.968;2022-12-07T07:42:49;12.70;80.20
28071;DHT22;15383;48.408;9.968;2022-12-07T07:45:15;12.90;80.90
28071;DHT22;15383;48.408;9.968;2022-12-07T07:48:00;13.00;81.70
28071;DHT22;15383;48.408;9.968;2022-12-07T07:50:25;13.10;82.50
28071;DHT22;15383;48.408;9.968;2022-12-07T07:52:51;13.30;83.20
28071;DHT22;15383;48.408;9.968;2022-12-07T07:55:17;13.30;83.90
28071;DHT22;15383;48.408;9.968;2022-12-07T07:57:43;13.40;84.60
28071;DHT22;15383;48.408;9.968;2022-12-07T08:00:11;13.40;85.70
28071;DHT22;15383;48.408;9.968;2022-12-07T08:02:37;13.50;85.60
28071;DHT22;15383;48.408;9.968;2022-12-07T08:05:03;13.60;85.90
28071;DHT22;15383;48.408;9.968;2022-12-07T08:07:29;13.70;86.40
28071;DHT22;15383;48.408;9.968;2022-12-07T08:09:55;13.70;86.70
28071;DHT22;15383;48.408;9.968;2022-12-07T08:12:20;13.80;87.00
28071;DHT22;15383;48.408;9.968;2022-12-07T08:14:46;13.80;87.20
28071;DHT22;15383;48.408;9.968;2022-12-07T08:17:12;13.80;87.60
28071;DHT22;15383;48.408;9.968;2022-12-07T08:19:38;13.90;88.00
28071;DHT22;15383;48.408;9.968;2022-12-07T08:22:03;13.90;88.30
28071;DHT22;15383;48.408;9.968;2022-12-07T08:24:29;13.90;88.60
28071;DHT22;15383;48.408;9.968;2022-12-07T08:26:54;13.90;88.90
28071;DHT22;15383;48.408;9.968;2022-12-07T08:29:20;13.90;89.20
28071;DHT22;15383;48.408;9.968;2022-12-07T08:31:46;13.90;89.50
28071;DHT22;15383;48.408;9.968;2022-12-07T08:34:12;13.90;89.80
28071;DHT22;15383;48.408;9.968;2022-12-07T08:36:38;13.80;89.90
28071;DHT22;15383;48.408;9.968;2022-12-07T08:39:03;13.80;90.00
28071;DHT22;15383;48.408;9.968;2022-12-07T08:41:29;13.80;90.10
28071;DHT22;15383;48.408;9.968;2022-12-07T08:43:58;13.80;90.20
28071;DHT22;15383;48.408;9.968;2022-12-07T08:46:26;13.80;90.30
28071;DHT22;15383;48.408;9.968;2022-12-07T08:49:02;13.80;90.40
28071;DHT22;15383;48.408;9.968;2022-12-07T08:51:28;13.80;90.50
28071;DHT22;15383;48.408;9.968;2022-12-07T08:53:55;13.80;90.50
28071;DHT22;15383;48.408;9.968;2022-12-07T08:56:21;13.80;90.60
28071;DHT22;15383;48.408;9.968;2022-12-07T08:58:48;13.70;90.60
28071;DHT22;15383;48.408;9.968;2022-12-07T09:01:14;13.70;90.70
28071;DHT22;15383;48.408;9.968;2022-12-07T09:03:39;13.80;90.70
28071;DHT22;15383;48.408;9.968;2022-12-07T09:06:05;13.80;90.80
28071;DHT22;15383;48.408;9.968;2022-12-07T09:08:36;13.70;90.80
28071;DHT22;15383;48.408;9.968;2022-12-07T09:11:04;13.70;90.90
28071;DHT22;15383;48.408;9.968;2022-12-07T09:13:29;13.70;90.90
28071;DHT22;15383;48.408;9.968;2022-12-07T09:15:55;13.70;90.90
28071;DHT22;15383;48.408;9.968;2022-12-07T09:18:21;13.80;91.00
28071;DHT22;15383;48.408;9.968;2022-12-07T09:20:46;13.70;91.00
28071;DHT22;15383;48.408;9.968;2022-12-07T09:23:12;13.70;91.00
28071;DHT22;15383;48.408;9.968;2022-12-07T09:25:38;13.80;91.00
28071;DHT22;15383;48.408;9.968;2022-12-07T09:28:03;13.80;91.10
28071;DHT22;15383;48.408;9.968;2022-12-07T09:30:29;13.70;91.10
28071;DHT22;15383;48.408;9.968;2022-12-07T09:32:56;13.70;91.10
28071;DHT22;15383;48.408;9.968;2022-12-07T09:35:22;13.70;91.10
28071;DHT22;15383;48.408;9.968;2022-12-07T09:37:48;13.80;91.10
28071;DHT22;15383;48.408;9.968;2022-12-07T09:40:15;13.80;91.10
28071;DHT22;15383;48.408;9.968;2022-12-07T09:42:45;13.70;91.10
28071;DHT22;15383;48.408;9.968;2022-12-07T09:45:24;13.80;91.20
28071;DHT22;15383;48.408;9.968;2022-12-07T09:47:51;13.70;91.20
28071;DHT22;15383;48.408;9.968;2022-12-07T09:50:23;13.80;91.20
28071;DHT22;15383;48.408;9.968;2022-12-07T09:52:50;13.80;91.20
28071;DHT22;15383;48.408;9.968;2022-12-07T09:55:23;13.80;91.20
28071;DHT22;15383;48.408;9.968;2022-12-07T09:57:50;13.80;91.20
28071;DHT22;15383;48.408;9.968;2022-12-07T10:00:19;13.80;91.30
28071;DHT22;15383;48.408;9.968;2022-12-07T10:07:50;13.90;91.30
28071;DHT22;15383;48.408;9.968;2022-12-07T10:10:22;13.90;91.30
28071;DHT22;15383;48.408;9.968;2022-12-07T10:13:04;13.80;91.30
28071;DHT22;15383;48.408;9.968;2022-12-07T10:15:50;13.90;91.40
28071;DHT22;15383;48.408;9.968;2022-12-07T10:23:29;13.80;91.30
28071;DHT22;15383;48.408;9.968;2022-12-07T10:25:55;13.90;91.40
28071;DHT22;15383;48.408;9.968;2022-12-07T10:28:21;13.90;91.40
28071;DHT22;15383;48.408;9.968;2022-12-07T10:30:59;13.90;91.40
28071;DHT22;15383;48.408;9.968;2022-12-07T10:35:54;13.90;91.40
28071;DHT22;15383;48.408;9.968;2022-12-07T10:38:20;13.90;91.40
28071;DHT22;15383;48.408;9.968;2022-12-07T10:40:45;13.90;91.40
28071;DHT22;15383;48.408;9.968;2022-12-07T10:49:15;13.90;91.40
28071;DHT22;15383;48.408;9.968;2022-12-07T11:00:25;14.00;91.50
28071;DHT22;15383;48.408;9.968;2022-12-07T11:03:06;14.00;91.50
28071;DHT22;15383;48.408;9.968;2022-12-07T11:05:42;14.00;91.50
28071;DHT22;15383;48.408;9.968;2022-12-07T11:11:29;14.00;91.50
28071;DHT22;15383;48.408;9.968;2022-12-07T11:14:22;14.00;91.60
28071;DHT22;15383;48.408;9.968;2022-12-07T11:16:56;14.00;91.60
28071;DHT22;15383;48.408;9.968;2022-12-07T11:22:00;14.10;91.60
28071;DHT22;15383;48.408;9.968;2022-12-07T11:27:44;14.10;91.60
28071;DHT22;15383;48.408;9.968;2022-12-07T11:32:51;14.10;91.70
28071;DHT22;15383;48.408;9.968;2022-12-07T11:35:33;14.10;91.70
28071;DHT22;15383;48.408;9.968;2022-12-07T11:38:12;14.20;91.70
28071;DHT22;15383;48.408;9.968;2022-12-07T11:40:45;14.20;91.80
28071;DHT22;15383;48.408;9.968;2022-12-07T11:43:25;14.20;91.80
28071;DHT22;15383;48.408;9.968;2022-12-07T11:46:12;14.30;91.90
28071;DHT22;15383;48.408;9.968;2022-12-07T11:48:50;14.30;91.80
28071;DHT22;15383;48.408;9.968;2022-12-07T11:51:20;14.30;91.80
28071;DHT22;15383;48.408;9.968;2022-12-07T11:53:55;14.30;91.80
28071;DHT22;15383;48.408;9.968;2022-12-07T11:56:25;14.30;91.90
28071;DHT22;15383;48.408;9.968;2022-12-07T11:59:04;14.20;91.90
28071;DHT22;15383;48.408;9.968;2022-12-07T12:06:40;14.20;91.90
28071;DHT22;15383;48.408;9.968;2022-12-07T12:11:43;14.20;91.90
28071;DHT22;15383;48.408;9.968;2022-12-07T12:14:36;14.20;91.90
28071;DHT22;15383;48.408;9.968;2022-12-07T12:22:53;14.20;91.90
28071;DHT22;15383;48.408;9.968;2022-12-07T12:25:25;14.20;91.90
28071;DHT22;15383;48.408;9.968;2022-12-07T12:27:53;14.20;91.90
28071;DHT22;15383;48.408;9.968;2022-12-07T12:30:30;14.20;91.90
28071;DHT22;15383;48.408;9.968;2022-12-07T12:33:14;14.20;92.20
28071;DHT22;15383;48.408;9.968;2022-12-07T12:35:43;14.20;91.90
28071;DHT22;15383;48.408;9.968;2022-12-07T12:38:29;14.20;92.00
28071;DHT22;15383;48.408;9.968;2022-12-07T12:40:56;14.20;91.90
28071;DHT22;15383;48.408;9.968;2022-12-07T12:51:53;14.20;92.00
28071;DHT22;15383;48.408;9.968;2022-12-07T12:54:21;14.20;92.00
28071;DHT22;15383;48.408;9.968;2022-12-07T12:57:07;14.20;92.00
28071;DHT22;15383;48.408;9.968;2022-12-07T12:59:37;14.20;92.00
28071;DHT22;15383;48.408;9.968;2022-12-07T13:15:43;14.10;92.00
28071;DHT22;15383;48.408;9.968;2022-12-07T13:18:35;14.20;92.10
28071;DHT22;15383;48.408;9.968;2022-12-07T13:29:15;14.10;92.10
28071;DHT22;15383;48.408;9.968;2022-12-07T13:37:15;14.10;92.10
28071;DHT22;15383;48.408;9.968;2022-12-07T13:39:51;14.10;92.10
28071;DHT22;15383;48.408;9.968;2022-12-07T13:42:31;14.10;92.10
28071;DHT22;15383;48.408;9.968;2022-12-07T13:45:00;14.20;92.20
28071;DHT22;15383;48.408;9.968;2022-12-07T13:47:43;14.10;92.10
28071;DHT22;15383;48.408;9.968;2022-12-07T13:50:26;14.20;92.20
28071;DHT22;15383;48.408;9.968;2022-12-07T13:53:00;14.10;92.20
28071;DHT22;15383;48.408;9.968;2022-12-07T13:55:30;14.10;92.20
28071;DHT22;15383;48.408;9.968;2022-12-07T13:57:56;14.10;92.30
28071;DHT22;15383;48.408;9.968;2022-12-07T14:00:27;14.10;92.40
28071;DHT22;15383;48.408;9.968;2022-12-07T14:05:37;14.10;92.50
28071;DHT22;15383;48.408;9.968;2022-12-07T14:08:04;14.10;92.50
28071;DHT22;15383;48.408;9.968;2022-12-07T14:10:31;14.10;92.60
28071;DHT22;15383;48.408;9.968;2022-12-07T14:12:58;14.10;92.60
28071;DHT22;15383;48.408;9.968;2022-12-07T14:15:31;14.10;92.60
28071;DHT22;15383;48.408;9.968;2022-12-07T14:17:58;14.10;92.70
28071;DHT22;15383;48.408;9.968;2022-12-07T14:20:40;14.10;92.70
28071;DHT22;15383;48.408;9.968;2022-12-07T14:23:23;14.10;92.70
28071;DHT22;15383;48.408;9.968;2022-12-07T14:25:52;14.10;92.70
28071;DHT22;15383;48.408;9.968;2022-12-07T14:28:47;14.10;92.80
28071;DHT22;15383;48.408;9.968;2022-12-07T14:31:16;14.10;92.80
28071;DHT22;15383;48.408;9.968;2022-12-07T14:33:42;14.10;92.80
28071;DHT22;15383;48.408;9.968;2022-12-07T14:36:12;14.10;92.80
28071;DHT22;15383;48.408;9.968;2022-12-07T14:38:38;14.10;92.80
28071;DHT22;15383;48.408;9.968;2022-12-07T14:41:06;14.10;92.80
28071;DHT22;15383;48.408;9.968;2022-12-07T14:43:55;14.10;92.80
28071;DHT22;15383;48.408;9.968;2022-12-07T14:46:20;14.10;93.20
28071;DHT22;15383;48.408;9.968;2022-12-07T14:48:46;14.00;92.90
28071;DHT22;15383;48.408;9.968;2022-12-07T14:51:12;14.00;92.90
28071;DHT22;15383;48.408;9.968;2022-12-07T14:53:42;14.00;92.90
28071;DHT22;15383;48.408;9.968;2022-12-07T14:56:07;14.00;92.90
28071;DHT22;15383;48.408;9.968;2022-12-07T14:58:33;14.10;93.00
28071;DHT22;15383;48.408;9.968;2022-12-07T15:01:02;14.00;93.00
28071;DHT22;15383;48.408;9.968;2022-12-07T15:03:28;14.00;93.00
28071;DHT22;15383;48.408;9.968;2022-12-07T15:05:55;13.90;93.00
28071;DHT22;15383;48.408;9.968;2022-12-07T15:08:20;13.90;93.10
28071;DHT22;15383;48.408;9.968;2022-12-07T15:10:46;14.00;93.10
28071;DHT22;15383;48.408;9.968;2022-12-07T15:13:11;13.90;93.10
28071;DHT22;15383;48.408;9.968;2022-12-07T15:15:55;13.90;93.00
28071;DHT22;15383;48.408;9.968;2022-12-07T15:18:22;13.90;93.00
28071;DHT22;15383;48.408;9.968;2022-12-07T15:20:48;13.90;93.00
28071;DHT22;15383;48.408;9.968;2022-12-07T15:23:14;13.90;93.00
28071;DHT22;15383;48.408;9.968;2022-12-07T15:25:41;13.90;93.00
28071;DHT22;15383;48.408;9.968;2022-12-07T15:28:06;13.90;93.00
28071;DHT22;15383;48.408;9.968;2022-12-07T15:30:32;13.90;93.00
28071;DHT22;15383;48.408;9.968;2022-12-07T15:32:58;13.80;93.00
28071;DHT22;15383;48.408;9.968;2022-12-07T15:35:23;13.80;93.00
28071;DHT22;15383;48.408;9.968;2022-12-07T15:37:49;13.80;92.90
28071;DHT22;15383;48.408;9.968;2022-12-07T15:40:14;13.80;93.00
28071;DHT22;15383;48.408;9.968;2022-12-07T15:42:40;13.80;93.00
28071;DHT22;15383;48.408;9.968;2022-12-07T15:45:07;13.80;93.00
28071;DHT22;15383;48.408;9.968;2022-12-07T15:47:40;13.80;93.00
28071;DHT22;15383;48.408;9.968;2022-12-07T15:50:12;13.80;93.00
28071;DHT22;15383;48.408;9.968;2022-12-07T15:52:38;13.80;93.00
28071;DHT22;15383;48.408;9.968;2022-12-07T15:55:05;13.80;93.00
28071;DHT22;15383;48.408;9.968;2022-12-07T15:57:32;13.80;93.40
28071;DHT22;15383;48.408;9.968;2022-12-07T15:59:58;13.80;93.00
28071;DHT22;15383;48.408;9.968;2022-12-07T16:02:24;13.70;93.00
28071;DHT22;15383;48.408;9.968;2022-12-07T16:04:51;13.70;93.00
28071;DHT22;15383;48.408;9.968;2022-12-07T16:07:17;13.70;93.00
28071;DHT22;15383;48.408;9.968;2022-12-07T16:09:44;13.80;93.00
28071;DHT22;15383;48.408;9.968;2022-12-07T16:12:11;13.70;93.00
28071;DHT22;15383;48.408;9.968;2022-12-07T16:14:37;13.70;93.00
28071;DHT22;15383;48.408;9.968;2022-12-07T16:17:03;13.70;93.10
28071;DHT22;15383;48.408;9.968;2022-12-07T16:19:30;13.70;93.10
28071;DHT22;15383;48.408;9.968;2022-12-07T16:21:56;13.70;93.10
28071;DHT22;15383;48.408;9.968;2022-12-07T16:24:22;13.70;93.10
28071;DHT22;15383;48.408;9.968;2022-12-07T16:26:48;13.70;93.10
28071;DHT22;15383;48.408;9.968;2022-12-07T16:29:14;13.60;93.10
28071;DHT22;15383;48.408;9.968;2022-12-07T16:31:40;13.60;93.10
28071;DHT22;15383;48.408;9.968;2022-12-07T16:34:06;13.60;93.10
28071;DHT22;15383;48.408;9.968;2022-12-07T16:36:32;13.60;93.20
28071;DHT22;15383;48.408;9.968;2022-12-07T16:39:01;13.60;93.20
28071;DHT22;15383;48.408;9.968;2022-12-07T16:41:27;13.60;93.30
28071;DHT22;15383;48.408;9.968;2022-12-07T16:43:53;13.60;93.30
28071;DHT22;15383;48.408;9.968;2022-12-07T16:46:18;13.50;93.30
28071;DHT22;15383;48.408;9.968;2022-12-07T16:48:44;13.50;93.30
28071;DHT22;15383;48.408;9.968;2022-12-07T16:51:12;13.50;93.30
28071;DHT22;15383;48.408;9.968;2022-12-07T16:53:40;13.50;93.40
28071;DHT22;15383;48.408;9.968;2022-12-07T16:56:14;13.50;93.40
28071;DHT22;15383;48.408;9.968;2022-12-07T16:58:41;13.50;93.40
28071;DHT22;15383;48.408;9.968;2022-12-07T17:01:20;13.50;93.40
28071;DHT22;15383;48.408;9.968;2022-12-07T17:03:48;13.50;93.40
28071;DHT22;15383;48.408;9.968;2022-12-07T17:06:22;13.50;93.50
28071;DHT22;15383;48.408;9.968;2022-12-07T17:08:51;13.60;93.50
28071;DHT22;15383;48.408;9.968;2022-12-07T17:11:20;13.50;93.40
28071;DHT22;15383;48.408;9.968;2022-12-07T17:13:46;13.50;93.40
28071;DHT22;15383;48.408;9.968;2022-12-07T17:16:30;13.50;93.40
28071;DHT22;15383;48.408;9.968;2022-12-07T17:18:56;13.50;93.50
28071;DHT22;15383;48.408;9.968;2022-12-07T17:21:21;13.50;93.40
28071;DHT22;15383;48.408;9.968;2022-12-07T17:23:48;13.50;93.40
28071;DHT22;15383;48.408;9.968;2022-12-07T17:26:23;13.50;93.40
28071;DHT22;15383;48.408;9.968;2022-12-07T17:28:49;13.50;93.40
28071;DHT22;15383;48.408;9.968;2022-12-07T17:31:19;13.50;93.40
28071;DHT22;15383;48.408;9.968;2022-12-07T17:33:45;13.50;93.40
28071;DHT22;15383;48.408;9.968;2022-12-07T17:36:19;13.50;93.50
28071;DHT22;15383;48.408;9.968;2022-12-07T17:38:46;13.50;93.50
28071;DHT22;15383;48.408;9.968;2022-12-07T17:41:14;13.50;93.50
28071;DHT22;15383;48.408;9.968;2022-12-07T17:44:04;13.40;93.50
28071;DHT22;15383;48.408;9.968;2022-12-07T17:46:30;13.40;93.50
28071;DHT22;15383;48.408;9.968;2022-12-07T17:48:57;13.40;93.40
28071;DHT22;15383;48.408;9.968;2022-12-07T17:51:23;13.40;93.50
28071;DHT22;15383;48.408;9.968;2022-12-07T17:54:07;13.40;93.50
28071;DHT22;15383;48.408;9.968;2022-12-07T17:56:34;13.40;93.50